createdAt,value
2017-02-28T00:00:10.476Z,72251
2017-02-28T00:00:21.039Z,72248
2017-02-28T00:00:31.584Z,72241
2017-02-28T00:00:41.386Z,72239
2017-02-28T00:00:51.559Z,72237
2017-02-28T00:01:02.089Z,72228
2017-02-28T00:01:12.636Z,72228
2017-02-28T00:01:23.184Z,72237
2017-02-28T00:01:33.739Z,72241
2017-02-28T00:01:44.276Z,72246
2017-02-28T00:01:54.830Z,72251
2017-02-28T00:02:05.369Z,72240
2017-02-28T00:02:15.940Z,72248
2017-02-28T00:02:26.497Z,72241
2017-02-28T00:02:36.672Z,72243
2017-02-28T00:02:47.229Z,72242
2017-02-28T00:02:57.769Z,72241
2017-02-28T00:03:07.948Z,72235
2017-02-28T00:03:18.501Z,72208
2017-02-28T00:03:29.044Z,72218
2017-02-28T00:03:39.221Z,72197
2017-02-28T00:03:49.446Z,72212
2017-02-28T00:03:59.979Z,72213
2017-02-28T00:04:10.531Z,72223
2017-02-28T00:04:21.077Z,72232
2017-02-28T00:04:31.612Z,72231
2017-02-28T00:04:42.169Z,72244
2017-02-28T00:04:52.707Z,72260
2017-02-28T00:05:03.277Z,72266
2017-02-28T00:05:13.509Z,72255
2017-02-28T00:05:24.080Z,72257
2017-02-28T00:05:34.618Z,72256
2017-02-28T00:05:45.180Z,72263
2017-02-28T00:05:55.720Z,72270
2017-02-28T00:06:06.276Z,72260
2017-02-28T00:06:16.804Z,72260
2017-02-28T00:06:27.019Z,72238
2017-02-28T00:06:37.169Z,72225
2017-02-28T00:06:47.718Z,72221
2017-02-28T00:06:58.275Z,72223
2017-02-28T00:07:08.476Z,72227
2017-02-28T00:07:18.676Z,72246
2017-02-28T00:07:29.220Z,72254
2017-02-28T00:07:39.042Z,72257
2017-02-28T00:07:49.589Z,72258
2017-02-28T00:08:00.126Z,72258
2017-02-28T00:08:10.287Z,72253
2017-02-28T00:08:20.825Z,72247
2017-02-28T00:08:31.367Z,72236
2017-02-28T00:08:41.939Z,72231
2017-02-28T00:08:52.489Z,72231
2017-02-28T00:09:03.029Z,72242
2017-02-28T00:09:13.588Z,72247
2017-02-28T00:09:24.142Z,72252
2017-02-28T00:09:34.717Z,72251
2017-02-28T00:09:45.272Z,72248
2017-02-28T00:09:55.440Z,72238
2017-02-28T00:10:05.590Z,72230
2017-02-28T00:10:16.137Z,72221
2017-02-28T00:10:26.329Z,72207
2017-02-28T00:10:36.148Z,72203
2017-02-28T00:10:46.702Z,72214
2017-02-28T00:10:57.258Z,72230
2017-02-28T00:11:07.441Z,72240
2017-02-28T00:11:18.013Z,72254
2017-02-28T00:11:28.553Z,72256
2017-02-28T00:11:39.126Z,72240
2017-02-28T00:11:49.691Z,72232
2017-02-28T00:12:00.274Z,72245
2017-02-28T00:12:10.812Z,72242
2017-02-28T00:12:21.377Z,72249
2017-02-28T00:12:31.922Z,72242
2017-02-28T00:12:42.485Z,72231
2017-02-28T00:12:53.061Z,72244
2017-02-28T00:13:03.624Z,72229
2017-02-28T00:13:14.170Z,72238
2017-02-28T00:13:24.736Z,72229
2017-02-28T00:13:35.296Z,72217
2017-02-28T00:13:45.517Z,72225
2017-02-28T00:13:56.086Z,72228
2017-02-28T00:14:06.657Z,72230
2017-02-28T00:14:16.483Z,72230
2017-02-28T00:14:27.053Z,72240
2017-02-28T00:14:37.591Z,72236
2017-02-28T00:14:47.776Z,72241
2017-02-28T00:14:58.345Z,72261
2017-02-28T00:15:08.531Z,72252
2017-02-28T00:15:18.720Z,72254
2017-02-28T00:15:28.874Z,72252
2017-02-28T00:15:38.668Z,72247
2017-02-28T00:15:49.243Z,72242
2017-02-28T00:15:59.794Z,72246
2017-02-28T00:16:10.332Z,72245
2017-02-28T00:16:20.880Z,72245
2017-02-28T00:16:31.056Z,72251
2017-02-28T00:16:41.633Z,72245
2017-02-28T00:16:52.516Z,72236
2017-02-28T00:17:03.128Z,72238
2017-02-28T00:17:13.670Z,72235
2017-02-28T00:17:23.880Z,72231
2017-02-28T00:17:34.089Z,72232
2017-02-28T00:17:44.265Z,72233
2017-02-28T00:17:54.446Z,72231
2017-02-28T00:18:05.012Z,72234
2017-02-28T00:18:15.554Z,72222
2017-02-28T00:18:26.108Z,72228
2017-02-28T00:18:36.659Z,72228
2017-02-28T00:18:47.183Z,72218
2017-02-28T00:18:57.725Z,72222
2017-02-28T00:19:08.299Z,72226
2017-02-28T00:19:18.841Z,72225
2017-02-28T00:19:29.407Z,72238
2017-02-28T00:19:39.931Z,72243
2017-02-28T00:19:50.510Z,72242
2017-02-28T00:20:01.094Z,72234
2017-02-28T00:20:11.271Z,72239
2017-02-28T00:20:21.823Z,72227
2017-02-28T00:20:31.647Z,72225
2017-02-28T00:20:42.215Z,72232
2017-02-28T00:20:52.789Z,72239
2017-02-28T00:21:03.330Z,72242
2017-02-28T00:21:13.544Z,72241
2017-02-28T00:21:23.741Z,72234
2017-02-28T00:21:34.301Z,72234
2017-02-28T00:21:44.827Z,72231
2017-02-28T00:21:55.443Z,72224
2017-02-28T00:22:05.618Z,72218
2017-02-28T00:22:16.190Z,72216
2017-02-28T00:22:26.388Z,72218
2017-02-28T00:22:36.918Z,72216
2017-02-28T00:22:47.131Z,72218
2017-02-28T00:22:57.649Z,72215
2017-02-28T00:23:08.196Z,72209
2017-02-28T00:23:18.764Z,72207
2017-02-28T00:23:29.319Z,72213
2017-02-28T00:23:39.887Z,72221
2017-02-28T00:23:50.432Z,72222
2017-02-28T00:24:01.011Z,72231
2017-02-28T00:24:11.547Z,72232
2017-02-28T00:24:22.115Z,72238
2017-02-28T00:24:32.708Z,72238
2017-02-28T00:24:42.899Z,72234
2017-02-28T00:24:53.095Z,72234
2017-02-28T00:25:03.662Z,72232
2017-02-28T00:25:13.872Z,72231
2017-02-28T00:25:23.709Z,72224
2017-02-28T00:25:34.261Z,72227
2017-02-28T00:25:44.422Z,72219
2017-02-28T00:25:54.964Z,72221
2017-02-28T00:26:05.523Z,72227
2017-02-28T00:26:15.692Z,72231
2017-02-28T00:26:25.505Z,72227
2017-02-28T00:26:36.026Z,72225
2017-02-28T00:26:46.550Z,72212
2017-02-28T00:26:57.120Z,72221
2017-02-28T00:27:07.666Z,72216
2017-02-28T00:27:17.497Z,72208
2017-02-28T00:27:28.055Z,72208
2017-02-28T00:27:38.241Z,72198
2017-02-28T00:27:48.795Z,72207
2017-02-28T00:27:59.336Z,72202
2017-02-28T00:28:09.913Z,72207
2017-02-28T00:28:20.081Z,72236
2017-02-28T00:28:30.639Z,72237
2017-02-28T00:28:41.199Z,72231
2017-02-28T00:28:51.775Z,72239
2017-02-28T00:29:02.330Z,72233
2017-02-28T00:29:12.533Z,72231
2017-02-28T00:29:22.379Z,72230
2017-02-28T00:29:32.923Z,72236
2017-02-28T00:29:43.473Z,72229
2017-02-28T00:29:54.016Z,72245
2017-02-28T00:30:04.583Z,72250
2017-02-28T00:30:15.146Z,72236
2017-02-28T00:30:25.707Z,72234
2017-02-28T00:30:36.247Z,72216
2017-02-28T00:30:46.780Z,72209
2017-02-28T00:30:57.337Z,72210
2017-02-28T00:31:07.883Z,72215
2017-02-28T00:31:18.440Z,72211
2017-02-28T00:31:29.015Z,72220
2017-02-28T00:31:39.203Z,72225
2017-02-28T00:31:49.774Z,72230
2017-02-28T00:32:00.300Z,72236
2017-02-28T00:32:10.850Z,72227
2017-02-28T00:32:21.033Z,72220
2017-02-28T00:32:31.219Z,72227
2017-02-28T00:32:41.804Z,72226
2017-02-28T00:32:52.359Z,72241
2017-02-28T00:33:02.911Z,72239
2017-02-28T00:33:13.474Z,72236
2017-02-28T00:33:24.082Z,72215
2017-02-28T00:33:34.256Z,72196
2017-02-28T00:33:44.818Z,72198
2017-02-28T00:33:55.368Z,72207
2017-02-28T00:34:05.913Z,72223
2017-02-28T00:34:16.487Z,72233
2017-02-28T00:34:27.016Z,72230
2017-02-28T00:34:37.566Z,72228
2017-02-28T00:34:47.753Z,72232
2017-02-28T00:34:58.271Z,72235
2017-02-28T00:35:08.797Z,72231
2017-02-28T00:35:19.320Z,72225
2017-02-28T00:35:29.858Z,72230
2017-02-28T00:35:40.414Z,72218
2017-02-28T00:35:50.942Z,72212
2017-02-28T00:36:01.480Z,72202
2017-02-28T00:36:11.678Z,72202
2017-02-28T00:36:21.515Z,72213
2017-02-28T00:36:31.689Z,72217
2017-02-28T00:36:42.235Z,72211
2017-02-28T00:36:52.784Z,72199
2017-02-28T00:37:03.345Z,72199
2017-02-28T00:37:13.526Z,72209
2017-02-28T00:37:23.339Z,72209
2017-02-28T00:37:33.538Z,72209
2017-02-28T00:37:44.077Z,72219
2017-02-28T00:37:54.637Z,72225
2017-02-28T00:38:05.172Z,72222
2017-02-28T00:38:15.706Z,72225
2017-02-28T00:38:26.318Z,72220
2017-02-28T00:38:36.863Z,72214
2017-02-28T00:38:47.387Z,72208
2017-02-28T00:38:57.939Z,72190
2017-02-28T00:39:08.504Z,72213
2017-02-28T00:39:19.062Z,72220
2017-02-28T00:39:29.671Z,72221
2017-02-28T00:39:40.229Z,72220
2017-02-28T00:39:50.794Z,72224
2017-02-28T00:40:01.354Z,72240
2017-02-28T00:40:11.550Z,72241
2017-02-28T00:40:22.091Z,72224
2017-02-28T00:40:32.627Z,72207
2017-02-28T00:40:43.146Z,72206
2017-02-28T00:40:53.688Z,72215
2017-02-28T00:41:04.245Z,72207
2017-02-28T00:41:14.800Z,72199
2017-02-28T00:41:24.960Z,72195
2017-02-28T00:41:35.563Z,72196
2017-02-28T00:41:46.094Z,72206
2017-02-28T00:41:56.644Z,72216
2017-02-28T00:42:07.190Z,72221
2017-02-28T00:42:17.755Z,72225
2017-02-28T00:42:27.925Z,72227
2017-02-28T00:42:38.473Z,72230
2017-02-28T00:42:49.039Z,72231
2017-02-28T00:42:59.597Z,72233
2017-02-28T00:43:10.160Z,72229
2017-02-28T00:43:20.691Z,72232
2017-02-28T00:43:30.894Z,72212
2017-02-28T00:43:41.464Z,72195
2017-02-28T00:43:51.989Z,72187
2017-02-28T00:44:02.576Z,72193
2017-02-28T00:44:12.789Z,72199
2017-02-28T00:44:23.313Z,72209
2017-02-28T00:44:33.847Z,72217
2017-02-28T00:44:44.382Z,72220
2017-02-28T00:44:54.895Z,72211
2017-02-28T00:45:05.425Z,72220
2017-02-28T00:45:15.992Z,72242
2017-02-28T00:45:26.190Z,72245
2017-02-28T00:45:36.363Z,72249
2017-02-28T00:45:46.908Z,72242
2017-02-28T00:45:57.457Z,72250
2017-02-28T00:46:07.633Z,72262
2017-02-28T00:46:18.184Z,72272
2017-02-28T00:46:28.360Z,72270
2017-02-28T00:46:38.925Z,72258
2017-02-28T00:46:49.477Z,72243
2017-02-28T00:47:00.065Z,72234
2017-02-28T00:47:10.611Z,72227
2017-02-28T00:47:21.193Z,72230
2017-02-28T00:47:31.731Z,72247
2017-02-28T00:47:41.539Z,72262
2017-02-28T00:47:52.068Z,72262
2017-02-28T00:48:02.636Z,72244
2017-02-28T00:48:12.445Z,72229
2017-02-28T00:48:23.043Z,72234
2017-02-28T00:48:33.587Z,72236
2017-02-28T00:48:44.181Z,72238
2017-02-28T00:48:54.742Z,72240
2017-02-28T00:49:05.306Z,72228
2017-02-28T00:49:15.874Z,72222
2017-02-28T00:49:26.405Z,72207
2017-02-28T00:49:36.963Z,72186
2017-02-28T00:49:47.536Z,72184
2017-02-28T00:49:57.736Z,72194
2017-02-28T00:50:08.263Z,72203
2017-02-28T00:50:18.818Z,72188
2017-02-28T00:50:29.024Z,72185
2017-02-28T00:50:39.207Z,72194
2017-02-28T00:50:49.751Z,72196
2017-02-28T00:51:00.291Z,72181
2017-02-28T00:51:10.864Z,72202
2017-02-28T00:51:21.057Z,72182
2017-02-28T00:51:31.640Z,72202
2017-02-28T00:51:42.197Z,72235
2017-02-28T00:51:52.743Z,72262
2017-02-28T00:52:03.280Z,72258
2017-02-28T00:52:13.839Z,72243
2017-02-28T00:52:23.640Z,72205
2017-02-28T00:52:34.210Z,72201
2017-02-28T00:52:44.741Z,72172
2017-02-28T00:52:55.302Z,72162
2017-02-28T00:53:05.824Z,72172
2017-02-28T00:53:16.354Z,72180
2017-02-28T00:53:26.513Z,72195
2017-02-28T00:53:37.041Z,72189
2017-02-28T00:53:47.584Z,72211
2017-02-28T00:53:58.163Z,72181
2017-02-28T00:54:08.706Z,72192
2017-02-28T00:54:19.241Z,72168
2017-02-28T00:54:29.782Z,72161
2017-02-28T00:54:40.321Z,72187
2017-02-28T00:54:50.862Z,72197
2017-02-28T00:55:01.423Z,72190
2017-02-28T00:55:11.981Z,72180
2017-02-28T00:55:22.177Z,72179
2017-02-28T00:55:32.378Z,72172
2017-02-28T00:55:42.936Z,72170
2017-02-28T00:55:53.481Z,72190
2017-02-28T00:56:04.030Z,72216
2017-02-28T00:56:14.597Z,72214
2017-02-28T00:56:24.389Z,72200
2017-02-28T00:56:34.918Z,72189
2017-02-28T00:56:45.472Z,72184
2017-02-28T00:56:56.027Z,72188
2017-02-28T00:57:06.260Z,72196
2017-02-28T00:57:16.830Z,72185
2017-02-28T00:57:27.385Z,72181
2017-02-28T00:57:37.935Z,72166
2017-02-28T00:57:48.482Z,72173
2017-02-28T00:57:59.044Z,72166
2017-02-28T00:58:09.232Z,72157
2017-02-28T00:58:19.769Z,72148
2017-02-28T00:58:30.337Z,72147
2017-02-28T00:58:40.906Z,72169
2017-02-28T00:58:51.455Z,72179
2017-02-28T00:59:02.031Z,72185
2017-02-28T00:59:12.577Z,72195
2017-02-28T00:59:23.166Z,72192
2017-02-28T00:59:33.344Z,72199
2017-02-28T00:59:43.912Z,72213
2017-02-28T00:59:54.441Z,72215
2017-02-28T01:00:04.977Z,72199
2017-02-28T01:00:15.522Z,72170
2017-02-28T01:00:26.079Z,72154
2017-02-28T01:00:36.630Z,72170
2017-02-28T01:00:47.178Z,72190
2017-02-28T01:00:57.359Z,72201
2017-02-28T01:01:07.900Z,72208
2017-02-28T01:01:18.061Z,72211
2017-02-28T01:01:28.239Z,72184
2017-02-28T01:01:38.791Z,72155
2017-02-28T01:01:49.003Z,72156
2017-02-28T01:01:59.531Z,72170
2017-02-28T01:02:10.064Z,72195
2017-02-28T01:02:20.258Z,72194
2017-02-28T01:02:30.811Z,72187
2017-02-28T01:02:41.338Z,72190
2017-02-28T01:02:51.867Z,72202
2017-02-28T01:03:02.421Z,72205
2017-02-28T01:03:12.971Z,72210
2017-02-28T01:03:23.524Z,72212
2017-02-28T01:03:33.674Z,72191
2017-02-28T01:03:44.253Z,72189
2017-02-28T01:03:54.796Z,72186
2017-02-28T01:04:05.339Z,72206
2017-02-28T01:04:15.892Z,72198
2017-02-28T01:04:26.457Z,72185
2017-02-28T01:04:37.014Z,72173
2017-02-28T01:04:47.605Z,72202
2017-02-28T01:04:58.173Z,72198
2017-02-28T01:05:08.729Z,72211
2017-02-28T01:05:18.880Z,72215
2017-02-28T01:05:29.415Z,72214
2017-02-28T01:05:39.960Z,72222
2017-02-28T01:05:50.566Z,72219
2017-02-28T01:06:01.104Z,72226
2017-02-28T01:06:11.675Z,72281
2017-02-28T01:06:22.238Z,72277
2017-02-28T01:06:32.424Z,72231
2017-02-28T01:06:42.977Z,72216
2017-02-28T01:06:53.539Z,72211
2017-02-28T01:07:04.085Z,72200
2017-02-28T01:07:14.640Z,72188
2017-02-28T01:07:25.184Z,72167
2017-02-28T01:07:35.737Z,72132
2017-02-28T01:07:46.306Z,72125
2017-02-28T01:07:56.448Z,72128
2017-02-28T01:08:07.000Z,72147
2017-02-28T01:08:17.567Z,72169
2017-02-28T01:08:27.775Z,72175
2017-02-28T01:08:38.341Z,72166
2017-02-28T01:08:48.891Z,72179
2017-02-28T01:08:59.461Z,72194
2017-02-28T01:09:10.026Z,72191
2017-02-28T01:09:20.573Z,72206
2017-02-28T01:09:31.102Z,72205
2017-02-28T01:09:41.660Z,72196
2017-02-28T01:09:52.208Z,72181
2017-02-28T01:10:02.762Z,72174
2017-02-28T01:10:12.931Z,72174
2017-02-28T01:10:23.473Z,72180
2017-02-28T01:10:33.280Z,72193
2017-02-28T01:10:43.835Z,72207
2017-02-28T01:10:54.391Z,72208
2017-02-28T01:11:04.928Z,72200
2017-02-28T01:11:15.491Z,72178
2017-02-28T01:11:26.062Z,72209
2017-02-28T01:11:36.608Z,72210
2017-02-28T01:11:47.164Z,72211
2017-02-28T01:11:57.705Z,72225
2017-02-28T01:12:08.265Z,72226
2017-02-28T01:12:18.793Z,72232
2017-02-28T01:12:29.358Z,72232
2017-02-28T01:12:39.883Z,72232
2017-02-28T01:12:50.068Z,72225
2017-02-28T01:13:00.607Z,72216
2017-02-28T01:13:11.127Z,72207
2017-02-28T01:13:21.329Z,72223
2017-02-28T01:13:31.876Z,72227
2017-02-28T01:13:42.043Z,72231
2017-02-28T01:13:52.606Z,72207
2017-02-28T01:14:03.160Z,72192
2017-02-28T01:14:13.764Z,72167
2017-02-28T01:14:24.299Z,72168
2017-02-28T01:14:34.484Z,72159
2017-02-28T01:14:44.280Z,72176
2017-02-28T01:14:54.452Z,72181
2017-02-28T01:15:05.012Z,72179
2017-02-28T01:15:15.563Z,72165
2017-02-28T01:15:26.118Z,72183
2017-02-28T01:15:36.672Z,72166
2017-02-28T01:15:47.232Z,72187
2017-02-28T01:15:57.766Z,72197
2017-02-28T01:16:08.302Z,72200
2017-02-28T01:16:18.487Z,72196
2017-02-28T01:16:29.022Z,72187
2017-02-28T01:16:39.565Z,72173
2017-02-28T01:16:49.773Z,72168
2017-02-28T01:17:00.288Z,72141
2017-02-28T01:17:10.835Z,72166
2017-02-28T01:17:21.371Z,72149
2017-02-28T01:17:31.917Z,72149
2017-02-28T01:17:42.478Z,72155
2017-02-28T01:17:52.643Z,72151
2017-02-28T01:18:03.231Z,72160
2017-02-28T01:18:13.390Z,72174
2017-02-28T01:18:23.598Z,72194
2017-02-28T01:18:34.185Z,72193
2017-02-28T01:18:43.986Z,72203
2017-02-28T01:18:54.559Z,72173
2017-02-28T01:19:05.148Z,72162
2017-02-28T01:19:15.718Z,72190
2017-02-28T01:19:25.507Z,72209
2017-02-28T01:19:36.067Z,72204
2017-02-28T01:19:46.662Z,72174
2017-02-28T01:19:57.234Z,72202
2017-02-28T01:20:07.787Z,72226
2017-02-28T01:20:17.968Z,72203
2017-02-28T01:20:28.489Z,72191
2017-02-28T01:20:39.041Z,72190
2017-02-28T01:20:49.615Z,72198
2017-02-28T01:21:00.148Z,72180
2017-02-28T01:21:10.707Z,72171
2017-02-28T01:21:21.243Z,72202
2017-02-28T01:21:31.789Z,72222
2017-02-28T01:21:41.974Z,72207
2017-02-28T01:21:52.538Z,72214
2017-02-28T01:22:03.093Z,72211
2017-02-28T01:22:13.648Z,72218
2017-02-28T01:22:24.208Z,72229
2017-02-28T01:22:34.370Z,72218
2017-02-28T01:22:44.563Z,72206
2017-02-28T01:22:54.698Z,72189
2017-02-28T01:23:05.261Z,72195
2017-02-28T01:23:15.825Z,72188
2017-02-28T01:23:26.405Z,72175
2017-02-28T01:23:36.948Z,72171
2017-02-28T01:23:47.510Z,72165
2017-02-28T01:23:58.079Z,72183
2017-02-28T01:24:08.628Z,72195
2017-02-28T01:24:19.171Z,72187
2017-02-28T01:24:29.730Z,72170
2017-02-28T01:24:40.269Z,72165
2017-02-28T01:24:50.798Z,72156
2017-02-28T01:25:01.343Z,72183
2017-02-28T01:25:11.888Z,72165
2017-02-28T01:25:22.424Z,72163
2017-02-28T01:25:33.015Z,72166
2017-02-28T01:25:43.552Z,72185
2017-02-28T01:25:54.116Z,72218
2017-02-28T01:26:04.280Z,72219
2017-02-28T01:26:14.460Z,72221
2017-02-28T01:26:24.640Z,72222
2017-02-28T01:26:35.217Z,72211
2017-02-28T01:26:45.800Z,72190
2017-02-28T01:26:56.333Z,72196
2017-02-28T01:27:06.876Z,72225
2017-02-28T01:27:17.413Z,72225
2017-02-28T01:27:27.612Z,72216
2017-02-28T01:27:37.796Z,72208
2017-02-28T01:27:48.324Z,72217
2017-02-28T01:27:58.897Z,72216
2017-02-28T01:28:09.463Z,72205
2017-02-28T01:28:20.039Z,72182
2017-02-28T01:28:30.579Z,72213
2017-02-28T01:28:41.137Z,72217
2017-02-28T01:28:51.302Z,72209
2017-02-28T01:29:01.855Z,72200
2017-02-28T01:29:12.424Z,72222
2017-02-28T01:29:22.617Z,72226
2017-02-28T01:29:33.195Z,72215
2017-02-28T01:29:43.758Z,72210
2017-02-28T01:29:54.321Z,72214
2017-02-28T01:30:04.854Z,72195
2017-02-28T01:30:15.456Z,72199
2017-02-28T01:30:26.008Z,72203
2017-02-28T01:30:36.547Z,72197
2017-02-28T01:30:47.106Z,72179
2017-02-28T01:30:57.635Z,72172
2017-02-28T01:31:08.224Z,72198
2017-02-28T01:31:18.766Z,72208
2017-02-28T01:31:28.938Z,72221
2017-02-28T01:31:39.501Z,72207
2017-02-28T01:31:50.051Z,72203
2017-02-28T01:32:00.641Z,72202
2017-02-28T01:32:10.454Z,72205
2017-02-28T01:32:21.011Z,72219
2017-02-28T01:32:31.530Z,72230
2017-02-28T01:32:41.697Z,72222
2017-02-28T01:32:52.265Z,72211
2017-02-28T01:33:02.450Z,72214
2017-02-28T01:33:13.019Z,72207
2017-02-28T01:33:23.547Z,72189
2017-02-28T01:33:34.095Z,72207
2017-02-28T01:33:44.286Z,72198
2017-02-28T01:33:54.485Z,72165
2017-02-28T01:34:05.065Z,72177
2017-02-28T01:34:15.284Z,72192
2017-02-28T01:34:25.839Z,72203
2017-02-28T01:34:36.031Z,72197
2017-02-28T01:34:46.607Z,72195
2017-02-28T01:34:56.425Z,72194
2017-02-28T01:35:07.020Z,72202
2017-02-28T01:35:17.555Z,72218
2017-02-28T01:35:28.114Z,72219
2017-02-28T01:35:38.687Z,72212
2017-02-28T01:35:49.222Z,72199
2017-02-28T01:35:59.369Z,72188
2017-02-28T01:36:09.938Z,72192
2017-02-28T01:36:20.492Z,72202
2017-02-28T01:36:30.642Z,72219
2017-02-28T01:36:41.187Z,72238
2017-02-28T01:36:51.725Z,72237
2017-02-28T01:37:02.265Z,72233
2017-02-28T01:37:12.816Z,72217
2017-02-28T01:37:23.002Z,72194
2017-02-28T01:37:33.544Z,72206
2017-02-28T01:37:44.138Z,72209
2017-02-28T01:37:54.688Z,72212
2017-02-28T01:38:05.238Z,72225
2017-02-28T01:38:15.771Z,72214
2017-02-28T01:38:26.376Z,72226
2017-02-28T01:38:36.939Z,72217
2017-02-28T01:38:47.515Z,72202
2017-02-28T01:38:58.084Z,72213
2017-02-28T01:39:08.691Z,72196
2017-02-28T01:39:19.242Z,72197
2017-02-28T01:39:29.836Z,72183
2017-02-28T01:39:40.436Z,72163
2017-02-28T01:39:50.969Z,72180
2017-02-28T01:40:01.519Z,72197
2017-02-28T01:40:11.336Z,72183
2017-02-28T01:40:21.876Z,72193
2017-02-28T01:40:32.411Z,72202
2017-02-28T01:40:43.003Z,72215
2017-02-28T01:40:53.547Z,72209
2017-02-28T01:41:04.107Z,72231
2017-02-28T01:41:14.666Z,72239
2017-02-28T01:41:25.287Z,72220
2017-02-28T01:41:35.827Z,72226
2017-02-28T01:41:46.392Z,72231
2017-02-28T01:41:56.941Z,72231
2017-02-28T01:42:07.153Z,72234
2017-02-28T01:42:17.701Z,72235
2017-02-28T01:42:27.485Z,72237
2017-02-28T01:42:38.016Z,72242
2017-02-28T01:42:48.560Z,72239
2017-02-28T01:42:59.125Z,72231
2017-02-28T01:43:09.667Z,72223
2017-02-28T01:43:20.179Z,72211
2017-02-28T01:43:30.709Z,72195
2017-02-28T01:43:41.257Z,72200
2017-02-28T01:43:51.836Z,72221
2017-02-28T01:44:02.007Z,72236
2017-02-28T01:44:12.176Z,72227
2017-02-28T01:44:22.726Z,72210
2017-02-28T01:44:33.296Z,72197
2017-02-28T01:44:43.839Z,72199
2017-02-28T01:44:54.399Z,72204
2017-02-28T01:45:04.940Z,72207
2017-02-28T01:45:15.475Z,72212
2017-02-28T01:45:25.648Z,72208
2017-02-28T01:45:35.829Z,72197
2017-02-28T01:45:46.386Z,72184
2017-02-28T01:45:56.978Z,72195
2017-02-28T01:46:07.506Z,72206
2017-02-28T01:46:17.676Z,72216
2017-02-28T01:46:28.229Z,72213
2017-02-28T01:46:37.666Z,72220
2017-02-28T01:46:48.200Z,72242
2017-02-28T01:46:58.765Z,72252
2017-02-28T01:47:09.283Z,72214
2017-02-28T01:47:19.456Z,72205
2017-02-28T01:47:29.608Z,72187
2017-02-28T01:47:40.232Z,72188
2017-02-28T01:47:50.787Z,72189
2017-02-28T01:48:01.306Z,72177
2017-02-28T01:48:11.104Z,72168
2017-02-28T01:48:21.652Z,72187
2017-02-28T01:48:32.190Z,72196
2017-02-28T01:48:42.715Z,72196
2017-02-28T01:48:53.273Z,72193
2017-02-28T01:49:03.835Z,72199
2017-02-28T01:49:14.017Z,72212
2017-02-28T01:49:24.182Z,72224
2017-02-28T01:49:34.342Z,72210
2017-02-28T01:49:44.907Z,72186
2017-02-28T01:49:55.446Z,72188
2017-02-28T01:50:05.985Z,72187
2017-02-28T01:50:16.550Z,72193
2017-02-28T01:50:27.095Z,72183
2017-02-28T01:50:37.684Z,72186
2017-02-28T01:50:48.287Z,72191
2017-02-28T01:50:58.847Z,72217
2017-02-28T01:51:09.038Z,72221
2017-02-28T01:51:19.197Z,72258
2017-02-28T01:51:29.361Z,72249
2017-02-28T01:51:39.534Z,72207
2017-02-28T01:51:50.085Z,72191
2017-02-28T01:52:00.645Z,72191
2017-02-28T01:52:11.172Z,72185
2017-02-28T01:52:21.705Z,72173
2017-02-28T01:52:31.892Z,72152
2017-02-28T01:52:42.051Z,72167
2017-02-28T01:52:52.589Z,72183
2017-02-28T01:53:03.126Z,72189
2017-02-28T01:53:13.690Z,72205
2017-02-28T01:53:23.876Z,72202
2017-02-28T01:53:33.693Z,72201
2017-02-28T01:53:44.268Z,72192
2017-02-28T01:53:54.791Z,72178
2017-02-28T01:54:05.401Z,72167
2017-02-28T01:54:15.933Z,72154
2017-02-28T01:54:26.461Z,72176
2017-02-28T01:54:37.074Z,72183
2017-02-28T01:54:47.618Z,72213
2017-02-28T01:54:58.165Z,72236
2017-02-28T01:55:08.357Z,72201
2017-02-28T01:55:18.877Z,72190
2017-02-28T01:55:28.702Z,72190
2017-02-28T01:55:39.249Z,72189
2017-02-28T01:55:49.749Z,72192
2017-02-28T01:56:00.312Z,72183
2017-02-28T01:56:10.870Z,72165
2017-02-28T01:56:21.387Z,72166
2017-02-28T01:56:31.932Z,72182
2017-02-28T01:56:42.123Z,72193
2017-02-28T01:56:52.692Z,72216
2017-02-28T01:57:03.252Z,72216
2017-02-28T01:57:13.434Z,72194
2017-02-28T01:57:23.608Z,72177
2017-02-28T01:57:34.173Z,72190
2017-02-28T01:57:44.740Z,72182
2017-02-28T01:57:55.260Z,72183
2017-02-28T01:58:05.807Z,72173
2017-02-28T01:58:16.375Z,72184
2017-02-28T01:58:26.586Z,72211
2017-02-28T01:58:37.127Z,72212
2017-02-28T01:58:47.716Z,72210
2017-02-28T01:58:58.254Z,72196
2017-02-28T01:59:08.833Z,72179
2017-02-28T01:59:19.034Z,72167
2017-02-28T01:59:29.595Z,72172
2017-02-28T01:59:40.166Z,72190
2017-02-28T01:59:50.730Z,72203
2017-02-28T02:00:01.280Z,72201
2017-02-28T02:00:11.842Z,72210
2017-02-28T02:00:22.410Z,72227
2017-02-28T02:00:32.201Z,72218
2017-02-28T02:00:42.743Z,72202
2017-02-28T02:00:53.310Z,72195
2017-02-28T02:01:03.856Z,72182
2017-02-28T02:01:14.051Z,72175
2017-02-28T02:01:24.616Z,72175
2017-02-28T02:01:35.168Z,72183
2017-02-28T02:01:45.702Z,72188
2017-02-28T02:01:56.266Z,72171
2017-02-28T02:02:06.839Z,72173
2017-02-28T02:02:17.388Z,72184
2017-02-28T02:02:27.969Z,72187
2017-02-28T02:02:38.516Z,72187
2017-02-28T02:02:48.694Z,72187
2017-02-28T02:02:58.860Z,72188
2017-02-28T02:03:09.428Z,72211
2017-02-28T02:03:19.604Z,72225
2017-02-28T02:03:29.806Z,72213
2017-02-28T02:03:39.978Z,72188
2017-02-28T02:03:50.516Z,72169
2017-02-28T02:04:01.094Z,72167
2017-02-28T02:04:11.627Z,72174
2017-02-28T02:04:22.190Z,72173
2017-02-28T02:04:32.723Z,72166
2017-02-28T02:04:43.287Z,72158
2017-02-28T02:04:53.860Z,72171
2017-02-28T02:05:04.440Z,72189
2017-02-28T02:05:14.995Z,72207
2017-02-28T02:05:25.513Z,72198
2017-02-28T02:05:36.101Z,72189
2017-02-28T02:05:46.629Z,72182
2017-02-28T02:05:57.183Z,72180
2017-02-28T02:06:07.717Z,72176
2017-02-28T02:06:18.277Z,72171
2017-02-28T02:06:28.473Z,72189
2017-02-28T02:06:39.031Z,72202
2017-02-28T02:06:49.578Z,72197
2017-02-28T02:07:00.120Z,72186
2017-02-28T02:07:10.698Z,72172
2017-02-28T02:07:21.282Z,72180
2017-02-28T02:07:31.824Z,72174
2017-02-28T02:07:42.387Z,72166
2017-02-28T02:07:52.564Z,72170
2017-02-28T02:08:03.145Z,72177
2017-02-28T02:08:13.702Z,72165
2017-02-28T02:08:24.255Z,72174
2017-02-28T02:08:34.450Z,72183
2017-02-28T02:08:44.999Z,72185
2017-02-28T02:08:55.526Z,72200
2017-02-28T02:09:06.059Z,72195
2017-02-28T02:09:16.614Z,72186
2017-02-28T02:09:27.146Z,72190
2017-02-28T02:09:37.683Z,72191
2017-02-28T02:09:48.215Z,72201
2017-02-28T02:09:58.371Z,72198
2017-02-28T02:10:08.967Z,72193
2017-02-28T02:10:19.541Z,72203
2017-02-28T02:10:30.136Z,72198
2017-02-28T02:10:40.678Z,72185
2017-02-28T02:10:51.263Z,72188
2017-02-28T02:11:01.821Z,72173
2017-02-28T02:11:12.380Z,72162
2017-02-28T02:11:22.564Z,72167
2017-02-28T02:11:32.746Z,72169
2017-02-28T02:11:43.294Z,72161
2017-02-28T02:11:53.850Z,72162
2017-02-28T02:12:04.410Z,72166
2017-02-28T02:12:14.948Z,72156
2017-02-28T02:12:25.488Z,72156
2017-02-28T02:12:36.065Z,72151
2017-02-28T02:12:46.590Z,72163
2017-02-28T02:12:57.142Z,72166
2017-02-28T02:13:07.690Z,72155
2017-02-28T02:13:18.242Z,72147
2017-02-28T02:13:28.810Z,72130
2017-02-28T02:13:39.002Z,72140
2017-02-28T02:13:49.580Z,72120
2017-02-28T02:14:00.139Z,72141
2017-02-28T02:14:10.680Z,72146
2017-02-28T02:14:21.226Z,72136
2017-02-28T02:14:31.798Z,72131
2017-02-28T02:14:41.956Z,72130